Barhom II — 5IM534 — position and weather

sailwx.info

Track history (hours):
 
Tides and Currents Weather Stations Pressure Air Temp Water Temp Dewpoint Dewpoint Depression Visibility Wind Speed Wind Dir Waves Ship Positions

Barhom II

Last reported at 2016-Aug-29 03:26 UTC. Time now 2016-Aug-29 07:11 UTC.
Position N 37°26' E 010°51'.

Length 83 m.

Type: Cargo ship. MMSI: 677043400.

Date/timePositionNaut miles runAvg speedWind from/ knotsBaromVisibWave heightAir tempDewpointWater temp
2016-Aug-29 03:26N 37°26' E 010°51'32310.7
2016-Aug-27 21:12N 37°38' E 004°03'710.3
2016-Aug-27 20:33N 37°38' E 003°55'1010.4
2016-Aug-27 19:33N 37°38' E 003°42'1010.4
2016-Aug-27 18:33N 37°38' E 003°29'1010.3
2016-Aug-27 17:33N 37°38' E 003°16'1010.1
2016-Aug-27 16:33N 37°37' E 003°03'1010.3
2016-Aug-27 15:33N 37°37' E 002°50'15610.4
2016-Aug-27 00:33N 37°30' W 000°26'1210.6
2016-Aug-26 23:25N 37°30' W 000°41'9 0.7
2016-Aug-26 09:34N 37°32' W 000°53'1211.3
2016-Aug-26 08:30N 37°32' W 000°37'1411.9
2016-Aug-26 07:17N 37°32' W 000°19'  
2016-Aug-22 22:34N 33°33' E 013°37'1010.0
2016-Aug-22 21:31N 33°25' E 013°44'3110.4
2016-Aug-22 18:32N 32°58' E 014°04'1110.8
2016-Aug-22 17:34N 32°49' E 014°10'9 2.6
2016-Aug-22 14:07N 32°41' E 014°14'0 0.0
2016-Aug-22 12:13N 32°41' E 014°14'0 0.0
2016-Aug-22 11:31N 32°41' E 014°14'0 0.0
2016-Aug-22 10:28N 32°41' E 014°14'0 0.0
2016-Aug-22 09:31N 32°41' E 014°14'0 0.0
2016-Aug-22 08:31N 32°41' E 014°14'0 0.0
2016-Aug-22 07:31N 32°41' E 014°14'0 0.0
2016-Aug-22 06:22N 32°41' E 014°14'0 0.0
2016-Aug-22 05:31N 32°41' E 014°14'0 0.0
2016-Aug-22 04:31N 32°41' E 014°14'0 0.0
2016-Aug-22 03:28N 32°41' E 014°14'0 0.0
2016-Aug-22 02:31N 32°41' E 014°14'0 0.0
2016-Aug-22 01:31N 32°41' E 014°14'0 0.0
2016-Aug-22 00:28N 32°41' E 014°14'0 0.0
2016-Aug-21 23:28N 32°41' E 014°14'0 0.0
2016-Aug-21 22:25N 32°41' E 014°14'0 0.0
2016-Aug-21 19:31N 32°41' E 014°14'0 0.0
2016-Aug-21 18:22N 32°41' E 014°14'0 0.0
2016-Aug-21 12:28N 32°41' E 014°14'0 0.0
2016-Aug-21 09:31N 32°41' E 014°14'0 0.0
2016-Aug-21 08:30N 32°41' E 014°14'2 2.0
2016-Aug-21 07:32N 32°42' E 014°16'1 1.3
2016-Aug-21 06:27N 32°43' E 014°17'1 1.4
2016-Aug-21 05:25N 32°45' E 014°16'127 9.7
2016-Aug-20 16:23N 34°42' E 013°18'19 9.8
2016-Aug-20 14:25N 34°59' E 013°07'910.6
2016-Aug-20 13:33N 35°08' E 013°03'1111.0
2016-Aug-20 12:33N 35°18' E 012°58'1111.3
2016-Aug-20 11:33N 35°28' E 012°53'1111.2
2016-Aug-20 10:33N 35°38' E 012°46'1110.7
2016-Aug-20 09:33N 35°47' E 012°38'1110.7
2016-Aug-20 08:33N 35°55' E 012°30'1111.1
2016-Aug-20 07:33N 36°04' E 012°22'1111.4
2016-Aug-20 06:33N 36°13' E 012°14'1111.4
2016-Aug-20 05:33N 36°23' E 012°06'1211.5
2016-Aug-20 04:33N 36°32' E 011°58'1411.4
2016-Aug-20 03:17N 36°44' E 011°47'810.9
2016-Aug-20 02:33N 36°50' E 011°41'1110.7
2016-Aug-20 01:33N 36°59' E 011°34'1110.9
2016-Aug-20 00:33N 37°08' E 011°26'1311.4
2016-Aug-19 23:22N 37°19' E 011°16'911.2
2016-Aug-19 22:33N 37°23' E 011°05'1110.9
2016-Aug-19 21:33N 37°27' E 010°53'5310.5
2016-Aug-19 16:31N 37°48' E 009°51'1010.6
2016-Aug-19 15:33N 37°52' E 009°39'1110.5
2016-Aug-19 14:33N 37°56' E 009°27'1110.7
2016-Aug-19 13:33N 38°00' E 009°15'1110.7
2016-Aug-19 12:33N 38°05' E 009°02'1110.6
2016-Aug-19 11:33N 38°09' E 008°50'  
Track history (hours):
 
Tides and Currents Weather Stations Pressure Air Temp Water Temp Dewpoint Dewpoint Depression Visibility Wind Speed Wind Dir Waves Ship Positions

Barhom II

Last reported at 2016-Aug-29 03:26 UTC. Time now 2016-Aug-29 07:11 UTC.
Position N 37°26' E 010°51'.

Length 83 m.

Type: Cargo ship. MMSI: 677043400.

Date/timePositionNaut miles runAvg speedWind from/ knotsBaromVisibWave heightAir tempDewpointWater temp
2016-Aug-29 03:26N 37°26' E 010°51'32310.7
2016-Aug-27 21:12N 37°38' E 004°03'710.3
2016-Aug-27 20:33N 37°38' E 003°55'1010.4
2016-Aug-27 19:33N 37°38' E 003°42'1010.4
2016-Aug-27 18:33N 37°38' E 003°29'1010.3
2016-Aug-27 17:33N 37°38' E 003°16'1010.1
2016-Aug-27 16:33N 37°37' E 003°03'1010.3
2016-Aug-27 15:33N 37°37' E 002°50'15610.4
2016-Aug-27 00:33N 37°30' W 000°26'1210.6
2016-Aug-26 23:25N 37°30' W 000°41'9 0.7
2016-Aug-26 09:34N 37°32' W 000°53'1211.3
2016-Aug-26 08:30N 37°32' W 000°37'1411.9
2016-Aug-26 07:17N 37°32' W 000°19'  
2016-Aug-22 22:34N 33°33' E 013°37'1010.0
2016-Aug-22 21:31N 33°25' E 013°44'3110.4
2016-Aug-22 18:32N 32°58' E 014°04'1110.8
2016-Aug-22 17:34N 32°49' E 014°10'9 2.6
2016-Aug-22 14:07N 32°41' E 014°14'0 0.0
2016-Aug-22 12:13N 32°41' E 014°14'0 0.0
2016-Aug-22 11:31N 32°41' E 014°14'0 0.0
2016-Aug-22 10:28N 32°41' E 014°14'0 0.0
2016-Aug-22 09:31N 32°41' E 014°14'0 0.0
2016-Aug-22 08:31N 32°41' E 014°14'0 0.0
2016-Aug-22 07:31N 32°41' E 014°14'0 0.0
2016-Aug-22 06:22N 32°41' E 014°14'0 0.0
2016-Aug-22 05:31N 32°41' E 014°14'0 0.0
2016-Aug-22 04:31N 32°41' E 014°14'0 0.0
2016-Aug-22 03:28N 32°41' E 014°14'0 0.0
2016-Aug-22 02:31N 32°41' E 014°14'0 0.0
2016-Aug-22 01:31N 32°41' E 014°14'0 0.0
2016-Aug-22 00:28N 32°41' E 014°14'0 0.0
2016-Aug-21 23:28N 32°41' E 014°14'0 0.0
2016-Aug-21 22:25N 32°41' E 014°14'0 0.0
2016-Aug-21 19:31N 32°41' E 014°14'0 0.0
2016-Aug-21 18:22N 32°41' E 014°14'0 0.0
2016-Aug-21 12:28N 32°41' E 014°14'0 0.0
2016-Aug-21 09:31N 32°41' E 014°14'0 0.0
2016-Aug-21 08:30N 32°41' E 014°14'2 2.0
2016-Aug-21 07:32N 32°42' E 014°16'1 1.3
2016-Aug-21 06:27N 32°43' E 014°17'1 1.4
2016-Aug-21 05:25N 32°45' E 014°16'127 9.7
2016-Aug-20 16:23N 34°42' E 013°18'19 9.8
2016-Aug-20 14:25N 34°59' E 013°07'910.6
2016-Aug-20 13:33N 35°08' E 013°03'1111.0
2016-Aug-20 12:33N 35°18' E 012°58'1111.3
2016-Aug-20 11:33N 35°28' E 012°53'1111.2
2016-Aug-20 10:33N 35°38' E 012°46'1110.7
2016-Aug-20 09:33N 35°47' E 012°38'1110.7
2016-Aug-20 08:33N 35°55' E 012°30'1111.1
2016-Aug-20 07:33N 36°04' E 012°22'1111.4
2016-Aug-20 06:33N 36°13' E 012°14'1111.4
2016-Aug-20 05:33N 36°23' E 012°06'1211.5
2016-Aug-20 04:33N 36°32' E 011°58'1411.4
2016-Aug-20 03:17N 36°44' E 011°47'810.9
2016-Aug-20 02:33N 36°50' E 011°41'1110.7
2016-Aug-20 01:33N 36°59' E 011°34'1110.9
2016-Aug-20 00:33N 37°08' E 011°26'1311.4
2016-Aug-19 23:22N 37°19' E 011°16'911.2
2016-Aug-19 22:33N 37°23' E 011°05'1110.9
2016-Aug-19 21:33N 37°27' E 010°53'5310.5
2016-Aug-19 16:31N 37°48' E 009°51'1010.6
2016-Aug-19 15:33N 37°52' E 009°39'1110.5
2016-Aug-19 14:33N 37°56' E 009°27'1110.7
2016-Aug-19 13:33N 38°00' E 009°15'1110.7
2016-Aug-19 12:33N 38°05' E 009°02'1110.6
2016-Aug-19 11:33N 38°09' E 008°50'  

Dump ship's entire track history